createdAt,value
2018-04-28T00:02:16.418Z,37.40
2018-04-28T00:04:46.913Z,37.40
2018-04-28T00:07:17.678Z,37.30
2018-04-28T00:09:48.998Z,37.20
2018-04-28T00:12:20.176Z,37.20
2018-04-28T00:14:51.031Z,37.40
2018-04-28T00:17:22.143Z,37.30
2018-04-28T00:19:57.053Z,37.40
2018-04-28T00:22:29.909Z,37.40
2018-04-28T00:25:09.820Z,37.40
2018-04-28T00:41:16.705Z,36.30
2018-04-28T00:43:47.119Z,36.70
2018-04-28T00:46:23.740Z,36.90
2018-04-28T00:49:11.514Z,37.20
2018-04-28T00:51:42.653Z,37.40
2018-04-28T00:54:46.246Z,37.60
2018-04-28T01:01:09.529Z,37.70
2018-04-28T01:06:52.285Z,37.70
2018-04-28T01:09:24.279Z,37.70
2018-04-28T01:11:55.410Z,37.90
2018-04-28T01:14:44.618Z,38.00
2018-04-28T01:17:19.509Z,37.90
2018-04-28T01:19:59.561Z,38.10
2018-04-28T01:22:41.550Z,38.20
2018-04-28T01:25:11.962Z,38.20
2018-04-28T01:27:44.905Z,38.10
2018-04-28T01:33:59.160Z,38.40
2018-04-28T01:36:31.982Z,38.40
2018-04-28T01:39:18.681Z,38.40
2018-04-28T01:45:16.878Z,38.90
2018-04-28T01:48:01.841Z,38.80
2018-04-28T01:50:36.856Z,38.80
2018-04-28T01:53:07.481Z,38.80
2018-04-28T01:58:40.124Z,39.20
2018-04-28T02:01:18.408Z,39.20
2018-04-28T02:06:59.670Z,39.50
2018-04-28T02:09:30.382Z,39.90
2018-04-28T02:15:31.430Z,39.60
2018-04-28T02:18:15.002Z,39.60
2018-04-28T02:24:28.198Z,39.60
2018-04-28T02:27:01.466Z,39.50
2018-04-28T02:29:35.745Z,39.60
2018-04-28T02:32:22.205Z,39.80
2018-04-28T02:34:59.858Z,40.00
2018-04-28T02:44:06.683Z,39.80
2018-04-28T02:46:47.789Z,39.90
2018-04-28T02:49:20.819Z,40.00
2018-04-28T02:55:05.293Z,40.50
2018-04-28T03:00:55.091Z,40.10
2018-04-28T03:03:59.845Z,40.20
2018-04-28T03:09:46.145Z,40.20
2018-04-28T03:12:17.422Z,40.20
2018-04-28T03:14:54.002Z,40.20
2018-04-28T03:17:37.454Z,40.20
2018-04-28T03:20:18.964Z,40.30
2018-04-28T03:22:50.958Z,40.30
2018-04-28T03:25:24.773Z,40.40
2018-04-28T03:31:20.065Z,40.50
2018-04-28T03:34:01.130Z,41.00
2018-04-28T03:36:36.146Z,40.50
2018-04-28T03:42:14.166Z,40.70
2018-04-28T03:44:49.634Z,40.60
2018-04-28T03:50:31.386Z,40.70
2018-04-28T03:56:14.016Z,40.80
2018-04-28T03:59:02.437Z,40.70
2018-04-28T04:01:50.355Z,40.70
2018-04-28T04:04:32.610Z,40.60
2018-04-28T04:07:13.062Z,40.60
2018-04-28T04:13:07.546Z,40.60
2018-04-28T04:16:03.031Z,40.50
2018-04-28T04:35:53.905Z,40.10
2018-04-28T04:38:24.653Z,40.00
2018-04-28T04:41:06.597Z,40.10
2018-04-28T04:43:45.210Z,40.30
2018-04-28T04:46:27.976Z,40.30
2018-04-28T04:49:11.590Z,40.40
2018-04-28T04:51:49.269Z,40.40
2018-04-28T04:54:32.959Z,40.50
2018-04-28T05:00:32.253Z,40.70
2018-04-28T05:06:25.472Z,40.60
2018-04-28T05:12:28.337Z,40.70
2018-04-28T05:15:16.177Z,40.70
2018-04-28T05:21:08.201Z,40.80
2018-04-28T05:37:45.523Z,40.40
2018-04-28T05:43:50.769Z,40.30
2018-04-28T05:46:41.145Z,40.40
2018-04-28T06:13:59.390Z,40.20
2018-04-28T06:20:02.601Z,40.40
2018-04-28T06:22:33.427Z,40.70
2018-04-28T06:25:04.147Z,40.70
2018-04-28T06:27:34.985Z,40.50
2018-04-28T06:30:06.169Z,40.50
2018-04-28T06:32:36.265Z,40.50
2018-04-28T06:35:07.327Z,40.30
2018-04-28T06:37:37.422Z,40.40
2018-04-28T06:40:08.230Z,40.50
2018-04-28T06:42:38.310Z,40.40
2018-04-28T06:45:09.397Z,40.60
2018-04-28T06:47:39.752Z,40.70
2018-04-28T06:50:10.619Z,40.90
2018-04-28T06:52:41.680Z,40.80
2018-04-28T06:55:11.910Z,40.90
2018-04-28T06:57:42.138Z,40.90
2018-04-28T07:00:12.235Z,40.90
2018-04-28T07:02:43.175Z,41.00
2018-04-28T07:05:13.594Z,41.00
2018-04-28T07:07:43.678Z,41.00
2018-04-28T07:10:14.870Z,40.80
2018-04-28T07:12:44.959Z,40.80
2018-04-28T07:15:16.255Z,40.90
2018-04-28T07:17:46.305Z,40.80
2018-04-28T07:20:16.518Z,41.00
2018-04-28T07:22:47.006Z,41.10
2018-04-28T07:25:17.443Z,41.00
2018-04-28T07:27:47.486Z,41.00
2018-04-28T07:30:17.915Z,40.80
2018-04-28T07:32:47.943Z,40.90
2018-04-28T07:35:18.255Z,40.50
2018-04-28T07:37:48.798Z,40.50
2018-04-28T07:40:19.029Z,40.30
2018-04-28T07:42:49.544Z,40.30
2018-04-28T07:45:19.839Z,40.30
2018-04-28T07:47:50.270Z,40.30
2018-04-28T07:50:20.340Z,40.30
2018-04-28T07:52:52.198Z,40.40
2018-04-28T07:55:24.089Z,40.40
2018-04-28T07:57:55.319Z,40.30
2018-04-28T08:00:26.137Z,40.40
2018-04-28T08:02:56.429Z,40.50
2018-04-28T08:05:26.499Z,40.50
2018-04-28T08:07:57.373Z,40.60
2018-04-28T08:10:27.785Z,40.50
2018-04-28T08:13:00.995Z,40.60
2018-04-28T08:15:31.194Z,40.50
2018-04-28T08:18:01.530Z,40.60
2018-04-28T08:20:31.770Z,40.50
2018-04-28T08:23:02.005Z,40.40
2018-04-28T08:25:32.227Z,40.50
2018-04-28T08:28:02.129Z,40.60
2018-04-28T08:30:33.349Z,40.90
2018-04-28T08:33:03.640Z,40.90
2018-04-28T08:35:33.694Z,40.70
2018-04-28T08:38:03.906Z,40.90
2018-04-28T08:40:33.982Z,40.70
2018-04-28T08:43:04.407Z,40.60
2018-04-28T08:45:35.165Z,40.60
2018-04-28T08:48:06.180Z,40.90
2018-04-28T08:50:37.753Z,40.80
2018-04-28T08:53:07.858Z,40.70
2018-04-28T08:55:37.923Z,40.90
2018-04-28T08:58:08.736Z,40.60
2018-04-28T09:00:49.004Z,40.60
2018-04-28T09:03:20.307Z,40.60
2018-04-28T09:05:52.291Z,40.90
2018-04-28T09:08:23.694Z,40.90
2018-04-28T09:10:55.804Z,40.90
2018-04-28T09:13:27.176Z,40.90
2018-04-28T09:15:58.553Z,41.00
2018-04-28T09:18:29.941Z,40.80
2018-04-28T09:21:01.390Z,40.80
2018-04-28T09:23:32.865Z,40.60
2018-04-28T09:26:04.333Z,40.60
2018-04-28T09:28:35.898Z,40.50
2018-04-28T09:31:07.760Z,40.70
2018-04-28T09:33:39.336Z,40.50
2018-04-28T09:36:10.712Z,40.40
2018-04-28T09:38:42.853Z,40.40
2018-04-28T09:41:15.075Z,40.60
2018-04-28T09:43:47.691Z,40.60
2018-04-28T09:46:19.367Z,40.60
2018-04-28T09:48:50.876Z,40.20
2018-04-28T09:51:22.235Z,40.80
2018-04-28T09:53:53.943Z,40.70
2018-04-28T09:56:25.295Z,40.40
2018-04-28T09:58:57.045Z,40.10
2018-04-28T10:01:29.110Z,40.10
2018-04-28T10:04:01.038Z,40.00
2018-04-28T10:06:32.753Z,40.00
2018-04-28T10:09:03.801Z,40.00
2018-04-28T10:11:35.183Z,40.00
2018-04-28T10:14:05.925Z,40.20
2018-04-28T10:16:37.607Z,40.40
2018-04-28T10:19:10.123Z,39.90
2018-04-28T10:21:41.881Z,39.80
2018-04-28T10:24:14.051Z,39.80
2018-04-28T10:26:45.697Z,39.70
2018-04-28T10:29:17.275Z,39.80
2018-04-28T10:31:48.715Z,39.50
2018-04-28T10:34:21.550Z,39.60
2018-04-28T10:36:52.955Z,39.50
2018-04-28T10:39:25.214Z,39.20
2018-04-28T10:41:56.638Z,39.30
2018-04-28T10:44:28.019Z,39.00
2018-04-28T10:46:59.621Z,39.50
2018-04-28T10:49:31.743Z,38.90
2018-04-28T10:52:03.165Z,38.70
2018-04-28T10:54:34.554Z,38.80
2018-04-28T10:57:05.916Z,38.60
2018-04-28T10:59:38.087Z,39.00
2018-04-28T11:02:10.320Z,38.40
2018-04-28T11:04:43.170Z,38.20
2018-04-28T11:07:14.668Z,38.10
2018-04-28T11:09:46.383Z,38.40
2018-04-28T11:12:18.607Z,39.40
2018-04-28T11:14:50.122Z,38.90
2018-04-28T11:17:21.862Z,38.60
2018-04-28T11:19:53.420Z,39.10
2018-04-28T11:22:24.958Z,39.00
2018-04-28T11:24:56.364Z,38.90
2018-04-28T11:27:27.765Z,38.60
2018-04-28T11:29:59.154Z,38.00
2018-04-28T11:32:31.256Z,38.00
2018-04-28T11:35:02.682Z,37.80
2018-04-28T11:37:34.781Z,38.00
2018-04-28T11:40:06.247Z,37.40
2018-04-28T11:42:37.593Z,37.60
2018-04-28T11:45:09.274Z,36.90
2018-04-28T11:47:40.654Z,36.00
2018-04-28T11:50:12.990Z,35.00
2018-04-28T11:52:44.449Z,34.80
2018-04-28T11:55:15.796Z,34.50
2018-04-28T11:57:47.965Z,34.20
2018-04-28T12:00:19.488Z,34.10
2018-04-28T12:02:51.002Z,33.80
2018-04-28T12:05:23.127Z,33.50
2018-04-28T12:07:54.631Z,33.40
2018-04-28T12:10:25.991Z,33.40
2018-04-28T12:12:57.481Z,33.10
2018-04-28T12:15:28.980Z,33.40
2018-04-28T12:18:00.442Z,32.50
2018-04-28T12:20:32.589Z,32.30
2018-04-28T12:23:04.426Z,32.20
2018-04-28T12:25:37.445Z,31.90
2018-04-28T12:28:09.303Z,31.90
2018-04-28T12:30:40.700Z,31.80
2018-04-28T12:33:12.078Z,32.00
2018-04-28T12:35:43.453Z,31.80
2018-04-28T12:38:15.052Z,31.90
2018-04-28T12:40:46.434Z,31.70
2018-04-28T12:43:18.966Z,32.50
2018-04-28T12:45:50.336Z,32.50
2018-04-28T12:48:21.714Z,32.60
2018-04-28T12:50:53.129Z,32.10
2018-04-28T12:53:25.818Z,32.20
2018-04-28T12:55:57.204Z,31.80
2018-04-28T12:58:30.141Z,31.30
2018-04-28T13:01:06.596Z,31.20
2018-04-28T13:03:37.953Z,31.50
2018-04-28T13:06:09.439Z,31.60
2018-04-28T13:08:42.050Z,31.40
2018-04-28T13:11:13.887Z,31.30
2018-04-28T13:13:46.066Z,31.00
2018-04-28T13:16:17.478Z,30.90
2018-04-28T13:18:49.294Z,30.70
2018-04-28T13:21:21.449Z,31.10
2018-04-28T13:23:53.110Z,31.10
2018-04-28T13:26:25.243Z,31.40
2018-04-28T13:28:56.666Z,31.40
2018-04-28T13:31:28.008Z,31.10
2018-04-28T13:34:00.467Z,31.00
2018-04-28T13:36:32.671Z,31.20
2018-04-28T13:39:03.472Z,31.10
2018-04-28T13:41:35.050Z,31.30
2018-04-28T13:44:06.433Z,31.50
2018-04-28T13:46:38.122Z,31.30
2018-04-28T13:49:10.231Z,31.10
2018-04-28T13:51:41.758Z,31.10
2018-04-28T13:54:14.260Z,31.20
2018-04-28T13:56:46.408Z,31.20
2018-04-28T13:59:17.751Z,31.10
2018-04-28T14:01:49.123Z,31.20
2018-04-28T14:04:20.510Z,31.40
2018-04-28T14:06:51.669Z,31.60
2018-04-28T14:09:23.472Z,31.80
2018-04-28T14:11:55.567Z,32.00
2018-04-28T14:14:27.085Z,31.80
2018-04-28T14:16:58.586Z,32.20
2018-04-28T14:19:30.006Z,32.00
2018-04-28T14:22:01.363Z,31.70
2018-04-28T14:24:32.882Z,31.60
2018-04-28T14:27:04.182Z,31.40
2018-04-28T14:29:35.792Z,31.90
2018-04-28T14:32:07.975Z,31.60
2018-04-28T14:34:40.414Z,31.50
2018-04-28T14:37:12.177Z,31.50
2018-04-28T14:39:43.518Z,31.50
2018-04-28T14:42:14.909Z,32.20
2018-04-28T14:44:46.289Z,31.70
2018-04-28T14:47:17.942Z,31.90
2018-04-28T14:49:49.417Z,32.00
2018-04-28T14:52:21.018Z,31.90
2018-04-28T14:54:53.164Z,32.00
2018-04-28T14:57:25.284Z,32.00
2018-04-28T14:59:56.462Z,31.90
2018-04-28T15:02:27.799Z,31.90
2018-04-28T15:04:59.194Z,31.70
2018-04-28T15:07:31.592Z,31.50
2018-04-28T15:10:03.702Z,31.30
2018-04-28T15:12:35.156Z,31.30
2018-04-28T15:15:07.320Z,31.30
2018-04-28T15:17:38.723Z,31.30
2018-04-28T15:20:10.886Z,31.50
2018-04-28T15:22:43.096Z,31.60
2018-04-28T15:25:14.500Z,31.50
2018-04-28T15:27:46.001Z,31.60
2018-04-28T15:30:17.531Z,31.70
2018-04-28T15:32:49.741Z,31.60
2018-04-28T15:35:21.137Z,31.60
2018-04-28T15:37:52.288Z,31.60
2018-04-28T15:40:24.404Z,31.90
2018-04-28T15:42:55.994Z,31.90
2018-04-28T15:45:27.337Z,31.90
2018-04-28T15:47:59.641Z,31.90
2018-04-28T15:50:31.058Z,31.80
2018-04-28T15:53:02.393Z,31.70
2018-04-28T15:55:33.790Z,31.90
2018-04-28T15:58:05.134Z,31.80
2018-04-28T16:00:37.386Z,32.10
2018-04-28T16:03:09.169Z,31.90
2018-04-28T16:05:40.549Z,31.90
2018-04-28T16:08:11.946Z,32.00
2018-04-28T16:10:43.380Z,31.80
2018-04-28T16:13:14.789Z,31.70
2018-04-28T16:15:46.281Z,31.60
2018-04-28T16:18:17.628Z,31.50
2018-04-28T16:20:49.060Z,31.50
2018-04-28T16:23:20.471Z,31.70
2018-04-28T16:25:52.668Z,31.50
2018-04-28T16:28:24.161Z,31.50
2018-04-28T16:30:55.502Z,31.80
2018-04-28T16:33:26.909Z,31.90
2018-04-28T16:35:58.512Z,31.90
2018-04-28T16:38:29.862Z,32.00
2018-04-28T16:41:01.266Z,32.10
2018-04-28T16:43:32.696Z,32.00
2018-04-28T16:46:04.181Z,32.30
2018-04-28T16:48:35.615Z,32.20
2018-04-28T16:51:07.751Z,32.10
2018-04-28T16:53:39.108Z,32.00
2018-04-28T16:56:11.214Z,32.10
2018-04-28T16:58:42.374Z,32.20
2018-04-28T17:01:14.096Z,32.00
2018-04-28T17:03:45.665Z,32.00
2018-04-28T17:06:17.251Z,32.20
2018-04-28T17:08:49.065Z,32.40
2018-04-28T17:11:20.629Z,32.20
2018-04-28T17:13:52.898Z,32.60
2018-04-28T17:16:24.307Z,32.50
2018-04-28T17:18:55.983Z,32.50
2018-04-28T17:21:27.631Z,32.60
2018-04-28T17:23:59.238Z,32.60
2018-04-28T17:26:30.920Z,32.70
2018-04-28T17:29:02.465Z,32.80
2018-04-28T17:31:34.049Z,32.70
2018-04-28T17:34:05.429Z,32.90
2018-04-28T17:36:36.811Z,32.90
2018-04-28T17:39:07.526Z,32.70
2018-04-28T17:41:39.653Z,32.70
2018-04-28T17:44:11.860Z,33.30
2018-04-28T17:46:43.227Z,32.60
2018-04-28T17:49:14.601Z,32.80
2018-04-28T17:51:46.155Z,32.70
2018-04-28T17:54:17.713Z,33.00
2018-04-28T17:56:49.095Z,33.00
2018-04-28T17:59:21.256Z,33.30
2018-04-28T18:01:52.770Z,33.10
2018-04-28T18:04:24.160Z,33.30
2018-04-28T18:06:56.513Z,33.50
2018-04-28T18:09:27.952Z,33.50
2018-04-28T18:11:59.780Z,33.10
2018-04-28T18:14:31.437Z,32.60
2018-04-28T18:17:02.837Z,32.60
2018-04-28T18:19:34.221Z,32.00
2018-04-28T18:22:06.361Z,32.10
2018-04-28T18:24:37.741Z,31.60
2018-04-28T18:27:09.919Z,31.10
2018-04-28T18:29:41.272Z,31.10
2018-04-28T18:32:12.626Z,31.00
2018-04-28T18:34:43.968Z,31.00
2018-04-28T18:37:16.346Z,31.00
2018-04-28T18:39:47.703Z,30.90
2018-04-28T18:42:20.404Z,31.00
2018-04-28T18:44:51.888Z,31.00
2018-04-28T18:47:24.032Z,31.00
2018-04-28T18:49:55.755Z,31.00
2018-04-28T18:52:27.426Z,31.10
2018-04-28T18:54:58.867Z,31.20
2018-04-28T18:57:30.983Z,31.30
2018-04-28T19:00:02.428Z,31.20
2018-04-28T19:02:33.767Z,31.60
2018-04-28T19:05:05.043Z,31.50
2018-04-28T19:07:37.319Z,31.40
2018-04-28T19:10:08.663Z,31.40
2018-04-28T19:12:40.109Z,31.50
2018-04-28T19:15:11.512Z,31.30
2018-04-28T19:17:42.897Z,31.00
2018-04-28T19:20:13.939Z,31.00
2018-04-28T19:22:45.338Z,31.10
2018-04-28T19:25:16.946Z,31.20
2018-04-28T19:27:48.313Z,31.10
2018-04-28T19:30:19.750Z,31.00
2018-04-28T19:32:51.300Z,31.00
2018-04-28T19:35:23.500Z,31.10
2018-04-28T19:37:54.843Z,31.90
2018-04-28T19:40:26.251Z,31.50
2018-04-28T19:42:57.660Z,31.50
2018-04-28T19:45:29.529Z,31.70
2018-04-28T19:48:01.108Z,31.80
2018-04-28T19:50:32.699Z,31.90
2018-04-28T19:53:04.365Z,32.00
2018-04-28T19:55:35.736Z,32.10
2018-04-28T19:58:07.138Z,32.10
2018-04-28T20:00:38.499Z,32.20
2018-04-28T20:03:09.726Z,32.30
2018-04-28T20:05:41.134Z,32.40
2018-04-28T20:08:12.498Z,32.60
2018-04-28T20:10:43.930Z,32.60
2018-04-28T20:13:15.333Z,32.70
2018-04-28T20:15:46.717Z,32.80
2018-04-28T20:18:18.136Z,32.90
2018-04-28T20:20:49.555Z,32.90
2018-04-28T20:23:37.678Z,33.00
2018-04-28T20:26:09.157Z,33.10
2018-04-28T20:28:41.315Z,33.70
2018-04-28T20:31:12.740Z,33.10
2018-04-28T20:33:43.942Z,33.10
2018-04-28T20:36:15.330Z,33.30
2018-04-28T20:38:46.861Z,33.30
2018-04-28T20:41:18.854Z,34.00
2018-04-28T20:43:50.315Z,33.50
2018-04-28T20:46:21.677Z,33.40
2018-04-28T20:48:53.051Z,33.50
2018-04-28T20:51:25.234Z,33.60
2018-04-28T20:53:56.604Z,33.60
2018-04-28T20:56:28.194Z,33.70
2018-04-28T20:58:59.882Z,33.80
2018-04-28T21:01:31.011Z,33.80
2018-04-28T21:04:02.410Z,33.90
2018-04-28T21:06:33.802Z,34.00
2018-04-28T21:09:04.605Z,34.20
2018-04-28T21:11:35.636Z,34.30
2018-04-28T21:14:07.014Z,34.40
2018-04-28T21:16:38.520Z,34.90
2018-04-28T21:19:10.866Z,35.40
2018-04-28T21:21:42.986Z,35.40
2018-04-28T21:24:14.358Z,35.40
2018-04-28T21:26:45.711Z,35.50
2018-04-28T21:29:17.120Z,35.70
2018-04-28T21:31:49.235Z,35.80
2018-04-28T21:34:20.882Z,35.80
2018-04-28T21:36:52.263Z,35.80
2018-04-28T21:39:23.667Z,35.80
2018-04-28T21:41:55.079Z,36.00
2018-04-28T21:44:26.698Z,36.10
2018-04-28T21:46:58.068Z,36.00
2018-04-28T21:49:30.215Z,36.20
2018-04-28T21:52:01.733Z,36.30
2018-04-28T21:54:34.179Z,36.20
2018-04-28T21:57:05.534Z,36.30
2018-04-28T21:59:37.254Z,36.20
2018-04-28T22:02:08.735Z,36.30
2018-04-28T22:04:40.113Z,36.50
2018-04-28T22:07:12.322Z,36.50
2018-04-28T22:09:43.803Z,36.50
2018-04-28T22:12:15.204Z,36.50
2018-04-28T22:14:46.587Z,36.50
2018-04-28T22:17:18.402Z,36.50
2018-04-28T22:19:49.820Z,37.00
2018-04-28T22:22:21.302Z,36.70
2018-04-28T22:24:52.757Z,36.90
2018-04-28T22:27:24.912Z,37.00
2018-04-28T22:29:56.290Z,36.90
2018-04-28T22:32:27.655Z,36.90
2018-04-28T22:34:59.002Z,37.10
2018-04-28T22:37:30.519Z,37.10
2018-04-28T22:40:02.659Z,37.30
2018-04-28T22:42:34.303Z,37.30
2018-04-28T22:45:05.342Z,37.40
2018-04-28T22:47:36.820Z,37.40
2018-04-28T22:50:08.161Z,37.50
2018-04-28T22:52:41.135Z,37.70
2018-04-28T22:55:12.528Z,37.80
2018-04-28T22:57:44.633Z,37.70
2018-04-28T23:00:15.088Z,37.60
2018-04-28T23:02:46.037Z,37.60
2018-04-28T23:05:19.470Z,37.80
2018-04-28T23:07:50.859Z,37.80
2018-04-28T23:10:22.213Z,37.70
2018-04-28T23:12:53.572Z,37.60
2018-04-28T23:15:24.937Z,37.50
2018-04-28T23:17:56.855Z,37.50
2018-04-28T23:20:28.269Z,37.60
2018-04-28T23:23:00.005Z,37.60
2018-04-28T23:25:31.406Z,37.60
2018-04-28T23:28:02.733Z,37.60
2018-04-28T23:30:34.186Z,37.40
2018-04-28T23:33:06.360Z,37.50
2018-04-28T23:35:38.494Z,37.50
2018-04-28T23:38:09.835Z,37.50
2018-04-28T23:40:41.517Z,37.60
2018-04-28T23:43:13.032Z,37.80
2018-04-28T23:45:44.501Z,37.80
2018-04-28T23:48:15.978Z,37.80
2018-04-28T23:50:48.241Z,38.10
2018-04-28T23:53:20.171Z,38.70
2018-04-28T23:55:51.552Z,38.10
2018-04-28T23:58:22.916Z,38.20
